Kezdőlap
METAR-TAF:

METAR-TAF

Repülőterek :

Kangerlussuaq, Grönland

földrajzi szélesség: 67-01N, földrajzi hosszúság: 050-42W, magasság: 50 m

Jelenlegi meteorológiai megfigyelések

A jelentés 1 órával és 3 perccel ezelõtt készült, 21:50 UTC
Különbözõ irányokból fújó szél 4 kt
Hőmérséklet 13°C
Páratartalom 67%
Légköri nyomás 1001 hPa
Látótávolság 10 km, vagy több
esõ,

METAR: BGSF 172150Z AUTO VRB04KT 9999NDV RA FEW040/// BKN055/// 13/07 Q1001

Idő: 20:53 (22:53 UTC)

Előrejelzés

A jelentés 5 órával és 46 perccel ezelõtt készült, 17:07 UTC
Az előrejelzés 17-én 18 óra UTC és 18-én 24 óra UTC között érvényes
Délnyugati szél 12 kt
Látótávolság 10 km, vagy több
Szakadozott felhőzet 10000 lábon
17-én 18 óra UTC és 18-én 18 óra UTC között ideiglenes
Különbözõ irányokból fújó szél 8 kt
Kevés felhő 3000 lábon
Szakadozott felhőzet 5000 lábon

TAF: BGSF 171707Z 1718/1824 23012KT 9999 BKN100 TEMPO 1718/1818 VRB08KT FEW030 BKN050

Meteorológiai megfigyelések és előrejelzések több, mint 4000 repülőtéren (METAR és TAF jelentéseket).

A térképen piros és sárga pontok jelzik az elérhető meteorológiai állomásokat.

Mozgassa az egeret a pont fölött, hogy megjelenjen az állomás neve.

Azután kattintson az időjárási megfigyelések és előrejelzések megtekintéséhez.

A térkép megváltoztatása: kattintson a fekete keresztel jelölt zöld gombra ráközelítéshez, a vonallal jelölt zöld gombra távolításhoz, vagy a zöld nyilakra a szomszédos térképek eléréséhez.


METAR-TAF: